Time;durP1;ratioP1;P1;durP2;ratioP2;P2;SDS_P1;SDS_P2;PMS_P1;PMS_P2;Temp;Humidity;BMP_temperature;BMP_pressure;BME280_temperature;BME280_humidity;BME280_pressure;Samples;Min_cycle;Max_cycle;Signal;HPM_P1;HPM_P2
2021/04/13 00:00:23;;;;;;;22.27;15.23;;;;;;;11.47;58.56;100943.88;1671236;83;21149;-60
2021/04/13 00:02:54;;;;;;;23.12;15.85;;;;;;;11.47;58.65;100946.99;1701484;82;21133;-59
2021/04/13 00:05:41;;;;;;;22.13;15.38;;;;;;;11.43;58.62;100942.44;1704765;83;21424;-60
2021/04/13 00:08:16;;;;;;;23.18;15.75;;;;;;;11.40;58.72;100949.25;1762191;80;21180;-58
2021/04/13 00:10:51;;;;;;;;;;;;;;;11.36;58.90;100939.05;1723079;80;21654;-58
2021/04/13 00:13:22;;;;;;;22.80;14.65;;;;;;;11.33;58.97;100944.91;1756694;79;20322;-59
2021/04/13 00:15:54;;;;;;;25.00;15.75;;;;;;;11.25;59.14;100943.80;1765701;79;21217;-58
2021/04/13 00:18:27;;;;;;;20.08;15.05;;;;;;;11.22;59.12;100951.44;1764534;79;21142;-59
2021/04/13 00:21:03;;;;;;;22.60;14.80;;;;;;;11.20;59.18;100945.94;1765014;80;21126;-58
2021/04/13 00:23:31;;;;;;;22.58;15.28;;;;;;;11.17;59.09;100949.63;1721799;80;21208;-58
2021/04/13 00:26:02;;;;;;;22.70;14.80;;;;;;;11.14;59.09;100947.20;1765533;80;21208;-58
2021/04/13 00:28:33;;;;;;;20.80;15.18;;;;;;;11.10;59.11;100951.87;1765689;79;21170;-62
2021/04/13 00:31:05;;;;;;;23.67;15.10;;;;;;;11.07;59.29;100949.45;1764597;80;21197;-59
2021/04/13 00:33:35;;;;;;;22.10;15.88;;;;;;;11.06;59.45;100952.19;1739927;80;21173;-59
2021/04/13 00:36:12;;;;;;;20.08;13.18;;;;;;;11.06;59.67;100954.38;1766550;79;21153;-59
2021/04/13 00:38:48;;;;;;;23.20;16.02;;;;;;;11.11;59.57;100947.42;1696634;82;21200;-58
2021/04/13 00:41:30;;;;;;;20.62;14.15;;;;;;;11.24;59.34;100952.16;1722642;81;21205;-58
2021/04/13 00:44:05;;;;;;;22.07;14.70;;;;;;;11.33;59.27;100951.50;1755469;79;21791;-59
2021/04/13 00:46:45;;;;;;;19.73;14.63;;;;;;;11.36;59.13;100953.05;1763685;80;21616;-58
2021/04/13 00:49:13;;;;;;;21.33;16.42;;;;;;;11.36;58.93;100949.09;1734730;80;21525;-58
2021/04/13 00:51:54;;;;;;;27.75;13.93;;;;;;;11.37;59.09;100952.59;1756185;80;22219;-58
2021/04/13 00:54:40;;;;;;;23.62;15.53;;;;;;;11.38;59.17;100955.11;1706154;81;21162;-58
2021/04/13 00:57:13;;;;;;;24.37;15.68;;;;;;;11.39;59.13;100950.19;1757603;79;22267;-58
2021/04/13 00:59:41;;;;;;;23.05;15.58;;;;;;;11.40;59.13;100948.38;1764359;79;21184;-58
2021/04/13 01:02:19;;;;;;;24.10;16.10;;;;;;;11.40;59.19;100947.06;1761346;79;21215;-58
2021/04/13 01:05:12;;;;;;;22.45;14.87;;;;;;;11.37;59.18;100950.78;1760990;79;21170;-58
2021/04/13 01:07:47;;;;;;;25.27;16.10;;;;;;;11.32;59.26;100944.53;1759919;79;21172;-58
2021/04/13 01:10:26;;;;;;;21.55;14.98;;;;;;;11.27;59.35;100941.89;1763590;80;21216;-59
2021/04/13 01:13:08;;;;;;;21.68;14.98;;;;;;;11.22;59.31;100942.70;1752747;79;21109;-59
2021/04/13 01:15:38;;;;;;;21.30;15.15;;;;;;;11.16;59.38;100940.03;1760158;79;21149;-59
2021/04/13 01:18:11;;;;;;;23.65;16.20;;;;;;;11.11;59.39;100936.89;1751730;80;21172;-59
2021/04/13 01:21:07;;;;;;;20.35;14.73;;;;;;;11.08;59.54;100937.14;1730065;81;21171;-59
2021/04/13 01:23:53;;;;;;;21.00;15.68;;;;;;;11.07;59.60;100928.87;1762923;79;22140;-59
2021/04/13 01:26:17;;;;;;;25.37;15.90;;;;;;;11.03;59.80;100928.71;1699796;82;21217;-59
2021/04/13 01:28:46;;;;;;;25.52;14.40;;;;;;;11.00;59.99;100927.16;1751652;79;21136;-58
2021/04/13 01:31:46;;;;;;;23.02;15.15;;;;;;;10.99;60.05;100926.78;1754933;79;21181;-58
2021/04/13 01:34:22;;;;;;;19.55;13.25;;;;;;;11.05;60.02;100926.34;1735944;80;21188;-58
2021/04/13 01:37:13;;;;;;;19.15;12.73;;;;;;;11.19;59.67;100921.37;1756242;79;21380;-58
2021/04/13 01:42:30;;;;;;;20.75;14.73;;;;;;;11.38;59.44;100926.58;1794574;77;23200;-59
2021/04/13 01:45:02;;;;;;;21.73;15.08;;;;;;;11.38;59.31;100935.81;1774936;80;21195;-59
2021/04/13 01:47:30;;;;;;;21.62;15.50;;;;;;;11.38;59.31;100931.40;1753569;80;22044;-60
2021/04/13 01:50:04;;;;;;;22.40;15.13;;;;;;;11.40;59.30;100926.84;1754482;80;21069;-60
2021/04/13 01:52:47;;;;;;;25.50;15.10;;;;;;;11.40;59.23;100929.94;1771374;79;21159;-60
2021/04/13 01:55:24;;;;;;;21.02;14.95;;;;;;;11.37;59.33;100923.61;1781041;78;21193;-60
2021/04/13 01:58:33;;;;;;;21.65;15.93;;;;;;;11.31;59.35;100929.70;1761978;79;21116;-59
2021/04/13 02:01:12;;;;;;;25.00;15.50;;;;;;;11.27;59.36;100930.86;1773652;78;21446;-58
2021/04/13 02:04:02;;;;;;;19.45;14.75;;;;;;;11.23;59.51;100924.61;1778310;78;21202;-59
2021/04/13 02:06:40;;;;;;;22.17;15.55;;;;;;;11.18;59.54;100921.48;1781217;78;21599;-60
2021/04/13 02:09:16;;;;;;;22.77;15.13;;;;;;;11.13;59.59;100915.26;1775338;80;21175;-60
2021/04/13 02:11:42;;;;;;;20.68;14.43;;;;;;;11.09;59.77;100919.88;1735171;81;21186;-60
2021/04/13 02:14:16;;;;;;;20.08;15.08;;;;;;;11.07;59.97;100909.11;1685229;83;21200;-59
2021/04/13 02:16:54;;;;;;;20.60;14.55;;;;;;;11.06;60.03;100909.60;1683447;82;21239;-59
2021/04/13 02:19:23;;;;;;;23.62;15.20;;;;;;;11.02;59.99;100908.13;1724964;82;21175;-58
2021/04/13 02:22:06;;;;;;;21.55;14.28;;;;;;;10.98;60.19;100910.64;1724622;81;21517;-58
2021/04/13 02:24:38;;;;;;;23.00;15.30;;;;;;;10.97;60.36;100908.46;1690527;83;21222;-60
2021/04/13 02:27:12;;;;;;;22.67;14.38;;;;;;;11.01;60.35;100903.84;1721953;81;21482;-60
2021/04/13 02:29:44;;;;;;;19.98;13.85;;;;;;;11.12;60.14;100913.08;1747718;80;21149;-60
2021/04/13 02:32:21;;;;;;;21.80;14.40;;;;;;;11.19;60.06;100910.83;1716483;81;21191;-59
2021/04/13 02:34:55;;;;;;;;;;;;;;;11.26;60.00;100913.85;1711861;82;21665;-60
2021/04/13 02:37:37;;;;;;;22.22;15.85;;;;;;;11.26;59.97;100907.27;1726979;81;20311;-60
2021/04/13 02:40:09;;;;;;;23.40;15.13;;;;;;;11.20;60.13;100910.38;1724165;81;21416;-58
2021/04/13 02:42:39;;;;;;;25.90;15.60;;;;;;;11.22;60.14;100909.30;1693543;82;21181;-59
2021/04/13 02:45:12;;;;;;;22.60;15.45;;;;;;;11.23;60.24;100908.34;1624755;84;21168;-59
2021/04/13 02:47:45;;;;;;;24.63;15.90;;;;;;;11.27;60.23;100905.01;1706273;82;21615;-59
2021/04/13 02:50:16;;;;;;;20.60;14.55;;;;;;;11.25;60.12;100907.75;1743717;82;21538;-59
2021/04/13 02:52:50;;;;;;;20.23;15.70;;;;;;;11.22;60.11;100906.66;1741565;80;21198;-59
2021/04/13 02:55:25;;;;;;;24.47;15.38;;;;;;;11.21;60.11;100902.33;1716093;82;21218;-59
2021/04/13 02:57:53;;;;;;;24.02;15.95;;;;;;;11.20;60.03;100900.67;1738937;80;21166;-58
2021/04/13 03:00:26;;;;;;;23.85;15.58;;;;;;;11.15;60.12;100901.00;1740219;80;21200;-58
2021/04/13 03:03:08;;;;;;;24.75;16.45;;;;;;;11.11;60.20;100905.29;1729394;80;21587;-59
2021/04/13 03:05:36;;;;;;;31.35;17.67;;;;;;;11.05;60.30;100908.40;1739008;80;21472;-59
2021/04/13 03:08:07;;;;;;;27.35;17.07;;;;;;;10.99;60.33;100904.89;1736475;80;21192;-61
2021/04/13 03:10:45;;;;;;;27.45;18.37;;;;;;;10.95;60.38;100902.47;1734294;80;21160;-57
2021/04/13 03:16:37;;;;;;;25.77;16.75;;;;;;;10.94;60.47;100902.13;1786318;79;22887;-59
2021/04/13 03:19:14;;;;;;;26.02;16.97;;;;;;;10.95;60.38;100906.42;1720297;80;21215;-60
2021/04/13 03:21:46;;;;;;;26.12;18.27;;;;;;;11.06;60.19;100903.47;1765243;80;21195;-58
2021/04/13 03:24:18;;;;;;;27.90;17.98;;;;;;;11.14;60.04;100901.95;1757367;80;21171;-58
2021/04/13 03:26:53;;;;;;;25.30;17.15;;;;;;;11.21;59.94;100903.65;1741152;80;21621;-58
2021/04/13 03:29:27;;;;;;;32.58;19.82;;;;;;;11.22;60.08;100905.34;1741582;80;21198;-59
2021/04/13 03:31:54;;;;;;;27.55;18.48;;;;;;;11.21;60.07;100902.33;1759375;80;21125;-59
2021/04/13 03:34:22;;;;;;;28.02;18.30;;;;;;;11.20;60.07;100899.36;1736789;80;21254;-59
2021/04/13 03:36:50;;;;;;;26.40;17.05;;;;;;;11.19;59.97;100896.83;1761312;80;21133;-58
2021/04/13 03:39:26;;;;;;;29.07;19.02;;;;;;;11.18;59.97;100906.53;1746702;80;21561;-58
2021/04/13 03:41:53;;;;;;;22.93;17.92;;;;;;;11.16;59.92;100908.42;1771567;80;21156;-58
2021/04/13 03:44:20;;;;;;;30.85;19.57;;;;;;;11.12;60.03;100909.13;1734805;80;21183;-58
2021/04/13 03:46:49;;;;;;;25.45;18.67;;;;;;;11.11;60.05;100914.50;1754670;80;21197;-58
2021/04/13 03:49:27;;;;;;;31.17;21.15;;;;;;;11.08;60.18;100916.08;1766792;80;21127;-58
2021/04/13 03:52:03;;;;;;;29.92;20.40;;;;;;;11.03;60.26;100914.23;1739170;80;21187;-58
2021/04/13 03:54:32;;;;;;;;;;;;;;;10.97;60.47;100914.21;1760268;80;21721;-59
2021/04/13 03:57:00;;;;;;;29.35;19.48;;;;;;;10.96;60.69;100917.33;1760515;80;20232;-59
2021/04/13 03:59:31;;;;;;;24.72;18.37;;;;;;;10.90;60.83;100915.13;1775951;80;21193;-59
2021/04/13 04:01:59;;;;;;;28.15;19.70;;;;;;;10.90;60.85;100916.45;1767743;79;21195;-59
2021/04/13 04:04:36;;;;;;;27.98;20.17;;;;;;;10.90;60.85;100913.82;1770205;79;21148;-63
2021/04/13 04:07:29;;;;;;;29.77;18.50;;;;;;;10.91;60.82;100914.65;1673124;84;21184;-61
2021/04/13 04:09:55;;;;;;;29.15;18.27;;;;;;;10.96;60.76;100919.97;1696480;83;21239;-63
2021/04/13 04:12:31;;;;;;;23.20;16.62;;;;;;;11.07;60.42;100911.75;1699439;83;21361;-62
2021/04/13 04:15:07;;;;;;;30.25;19.30;;;;;;;11.15;60.35;100917.30;1675340;84;21256;-62
2021/04/13 04:17:36;;;;;;;;;;;;;;;11.22;60.05;100913.73;1658988;85;21136;-63
2021/04/13 04:20:10;;;;;;;26.23;18.35;;;;;;;11.25;60.06;100918.77;1680008;83;20322;-62
2021/04/13 04:22:50;;;;;;;26.23;18.82;;;;;;;11.23;60.03;100925.47;1681317;83;21223;-62
2021/04/13 04:25:32;;;;;;;25.65;18.95;;;;;;;11.26;59.88;100917.80;1676756;83;21363;-62
2021/04/13 04:28:03;;;;;;;28.07;19.45;;;;;;;11.29;59.82;100930.27;1633280;84;21251;-59
2021/04/13 04:30:33;;;;;;;27.50;19.17;;;;;;;11.31;59.85;100927.52;1657758;84;21264;-59
2021/04/13 04:33:02;;;;;;;30.27;18.95;;;;;;;11.32;59.76;100931.36;1652673;84;21295;-63
2021/04/13 04:35:41;;;;;;;27.60;19.50;;;;;;;11.33;59.69;100923.83;1677765;84;21173;-62
2021/04/13 04:38:29;;;;;;;27.42;19.30;;;;;;;11.32;59.60;100930.05;1688576;83;21274;-63
2021/04/13 04:41:07;;;;;;;29.42;19.85;;;;;;;11.28;59.62;100922.02;1676269;83;21532;-62
2021/04/13 04:43:57;;;;;;;29.27;19.02;;;;;;;11.27;59.59;100919.01;1680063;83;21215;-62
2021/04/13 04:46:41;;;;;;;30.23;20.50;;;;;;;11.27;59.69;100923.45;1697134;83;21184;-62
2021/04/13 04:49:12;;;;;;;28.38;18.10;;;;;;;11.26;59.85;100921.30;1676094;84;21265;-61
2021/04/13 04:51:40;;;;;;;30.30;20.02;;;;;;;11.25;59.98;100919.61;1702305;81;22522;-61
2021/04/13 04:54:09;;;;;;;28.23;18.30;;;;;;;11.26;60.03;100917.80;1703856;81;21670;-61
2021/04/13 04:56:36;;;;;;;31.07;20.23;;;;;;;11.26;59.97;100921.30;1724761;80;21199;-61
2021/04/13 04:59:04;;;;;;;30.32;19.80;;;;;;;11.27;59.92;100919.01;1702163;82;21223;-62
2021/04/13 05:01:32;;;;;;;29.60;20.08;;;;;;;11.29;59.89;100919.73;1729304;81;21526;-62
2021/04/13 05:04:00;;;;;;;26.30;19.02;;;;;;;11.35;59.86;100915.81;1733617;81;21235;-62
2021/04/13 05:06:28;;;;;;;29.05;19.77;;;;;;;11.49;59.70;100913.45;1710594;82;21663;-62
2021/04/13 05:08:56;;;;;;;29.05;20.40;;;;;;;11.60;59.33;100916.13;1730632;81;21493;-62
2021/04/13 05:11:26;;;;;;;29.00;19.82;;;;;;;11.69;59.24;100911.45;1729275;81;21372;-63
2021/04/13 05:13:55;;;;;;;32.45;19.98;;;;;;;11.81;58.89;100916.75;1731835;81;21144;-62
2021/04/13 05:16:22;;;;;;;31.60;19.98;;;;;;;11.86;58.74;100915.92;1739565;79;21276;-62
2021/04/13 05:18:51;;;;;;;25.57;19.25;;;;;;;11.92;58.67;100908.03;1756614;79;21242;-61
2021/04/13 05:21:20;;;;;;;30.17;19.65;;;;;;;11.97;58.44;100917.29;1757592;80;21216;-61
2021/04/13 05:23:48;;;;;;;32.00;20.08;;;;;;;11.98;58.23;100918.12;1735780;80;21207;-61
2021/04/13 05:26:15;;;;;;;31.33;19.82;;;;;;;11.94;58.37;100916.20;1736977;80;21254;-63
2021/04/13 05:28:44;;;;;;;25.80;18.87;;;;;;;11.96;58.37;100921.36;1739831;80;21627;-61
2021/04/13 05:31:11;;;;;;;27.00;20.40;;;;;;;11.93;58.38;100917.15;1743641;80;21164;-61
2021/04/13 05:33:39;;;;;;;29.50;21.17;;;;;;;11.88;58.52;100915.31;1746275;80;21230;-60
2021/04/13 05:36:07;;;;;;;30.15;20.30;;;;;;;11.86;58.67;100913.28;1758709;79;21155;-61
2021/04/13 05:38:38;;;;;;;27.90;19.37;;;;;;;11.83;58.78;100916.15;1766758;80;21195;-60
2021/04/13 05:41:07;;;;;;;30.35;20.40;;;;;;;11.80;58.93;100912.42;1753361;80;21412;-60
2021/04/13 05:43:38;;;;;;;31.30;20.45;;;;;;;11.74;59.11;100908.96;1757760;80;22269;-59
2021/04/13 05:46:05;;;;;;;26.10;19.40;;;;;;;11.72;59.24;100906.44;1763736;80;21239;-58
2021/04/13 05:48:33;;;;;;;30.25;20.77;;;;;;;11.69;59.41;100904.86;1759739;79;21195;-62
2021/04/13 05:51:01;;;;;;;28.90;20.45;;;;;;;11.66;59.66;100905.58;1755748;79;21215;-67
2021/04/13 05:53:29;;;;;;;25.77;19.42;;;;;;;11.70;59.70;100902.60;1756618;79;21337;-70
2021/04/13 05:55:58;;;;;;;28.25;19.65;;;;;;;11.81;59.57;100905.72;1759286;79;21662;-67
2021/04/13 05:58:32;;;;;;;31.50;21.20;;;;;;;11.89;59.61;100903.82;1718577;82;21164;-73
2021/04/13 06:01:04;;;;;;;33.70;21.05;;;;;;;11.95;59.73;100907.80;1690630;83;21231;-69
2021/04/13 06:03:31;;;;;;;33.60;22.45;;;;;;;11.98;59.91;100909.72;1698950;83;21163;-71
2021/04/13 06:05:58;;;;;;;30.12;21.30;;;;;;;12.03;59.81;100908.05;1698096;83;21386;-58
2021/04/13 06:08:26;;;;;;;29.25;21.37;;;;;;;12.05;59.86;100912.27;1698478;83;21227;-59
2021/04/13 06:10:54;;;;;;;28.38;20.50;;;;;;;12.05;59.78;100911.41;1685720;83;21674;-58
2021/04/13 06:13:22;;;;;;;29.90;21.23;;;;;;;12.04;59.87;100911.89;1701705;82;21763;-59
2021/04/13 06:15:54;;;;;;;35.05;22.55;;;;;;;12.02;59.85;100911.17;1693478;83;21244;-59
2021/04/13 06:18:24;;;;;;;31.60;21.75;;;;;;;11.98;60.01;100914.99;1686164;83;21396;-58
2021/04/13 06:20:53;;;;;;;30.23;21.30;;;;;;;11.95;60.04;100912.59;1706434;83;21286;-58
2021/04/13 06:23:22;;;;;;;32.03;22.35;;;;;;;11.94;60.09;100908.30;1683160;83;21225;-58
2021/04/13 06:25:50;;;;;;;33.30;21.12;;;;;;;11.94;60.10;100907.46;1743614;79;21216;-57
2021/04/13 06:28:18;;;;;;;35.17;22.13;;;;;;;11.92;60.15;100907.58;1747477;81;21297;-58
2021/04/13 06:30:46;;;;;;;34.38;22.77;;;;;;;11.95;60.14;100909.13;1743056;81;21348;-58
2021/04/13 06:33:16;;;;;;;32.42;22.15;;;;;;;11.96;60.21;100905.05;1725025;81;21215;-58
2021/04/13 06:35:45;;;;;;;27.95;20.65;;;;;;;11.95;60.36;100904.67;1743790;79;21208;-58
2021/04/13 06:38:17;;;;;;;28.52;19.32;;;;;;;12.05;60.37;100907.44;1743814;79;21164;-58
2021/04/13 06:41:22;;;;;;;31.00;19.27;;;;;;;12.18;60.07;100912.61;1747995;81;21185;-58
2021/04/13 06:44:10;;;;;;;31.52;20.17;;;;;;;12.31;59.92;100910.69;1754301;79;21207;-57
2021/04/13 06:47:01;;;;;;;36.80;21.40;;;;;;;12.41;59.75;100911.64;1742960;79;21236;-59
2021/04/13 06:50:01;;;;;;;30.97;21.30;;;;;;;12.44;59.63;100910.08;1746264;81;21164;-58
2021/04/13 06:53:20;;;;;;;32.05;22.32;;;;;;;12.49;59.54;100908.40;1745501;81;21219;-58
2021/04/13 06:56:12;;;;;;;29.25;21.90;;;;;;;12.54;59.46;100909.33;1736245;81;21667;-58
2021/04/13 06:59:08;;;;;;;32.83;21.27;;;;;;;12.52;59.33;100908.62;1749927;81;21375;-59
2021/04/13 07:01:57;;;;;;;29.77;20.85;;;;;;;12.53;59.23;100902.39;1728311;79;21533;-59
2021/04/13 07:04:45;;;;;;;31.00;20.48;;;;;;;12.52;59.26;100908.62;1748229;79;21588;-58
2021/04/13 07:07:17;;;;;;;28.42;21.82;;;;;;;12.48;59.17;100904.06;1748913;81;21165;-58
2021/04/13 07:09:55;;;;;;;36.65;20.60;;;;;;;12.42;59.34;100908.05;1751048;79;21133;-59
2021/04/13 07:12:41;;;;;;;27.58;20.85;;;;;;;12.42;59.44;100914.64;1742074;81;21220;-59
2021/04/13 07:15:46;;;;;;;31.35;22.82;;;;;;;12.44;59.48;100911.40;1867576;74;22629;-57
2021/04/13 07:18:38;;;;;;;31.00;22.95;;;;;;;12.42;59.52;100912.47;1754641;80;21208;-58
2021/04/13 07:21:10;;;;;;;30.37;20.72;;;;;;;12.44;59.63;100914.52;1787354;78;23026;-59
2021/04/13 07:23:47;;;;;;;34.83;25.30;;;;;;;12.48;59.56;100911.16;1771527;79;21216;-58
2021/04/13 07:26:31;;;;;;;35.17;22.00;;;;;;;12.52;59.54;100921.81;1797180;79;21634;-59
2021/04/13 07:29:14;;;;;;;30.90;20.12;;;;;;;12.60;59.43;100923.37;1763700;78;21757;-58
2021/04/13 07:32:04;;;;;;;29.95;22.52;;;;;;;12.72;59.24;100911.81;1795085;77;21156;-58
2021/04/13 07:34:33;;;;;;;31.37;20.80;;;;;;;12.85;59.03;100908.20;1794878;77;21052;-56
2021/04/13 07:37:36;;;;;;;32.25;22.35;;;;;;;12.93;58.94;100911.88;1760774;79;21250;-57
2021/04/13 07:40:16;;;;;;;36.50;21.25;;;;;;;12.99;58.73;100920.64;1793376;78;21168;-56
2021/04/13 07:43:24;;;;;;;29.80;21.15;;;;;;;13.10;58.42;100919.75;1831670;76;22733;-55
2021/04/13 07:46:22;;;;;;;35.68;22.65;;;;;;;13.12;58.44;100924.41;1783272;78;21645;-56
2021/04/13 07:49:16;;;;;;;35.15;24.15;;;;;;;13.14;58.73;100925.13;1815270;77;21195;-55
2021/04/13 07:52:06;;;;;;;28.52;21.40;;;;;;;13.18;58.59;100926.56;1783600;79;21192;-55
2021/04/13 07:55:18;;;;;;;31.33;21.80;;;;;;;13.21;58.46;100928.09;1764866;79;21170;-55
2021/04/13 07:57:59;;;;;;;30.60;20.25;;;;;;;13.20;58.33;100922.48;1760831;80;21617;-56
2021/04/13 08:00:39;;;;;;;32.10;22.07;;;;;;;13.17;58.58;100920.91;1769967;79;21111;-55
2021/04/13 08:03:23;;;;;;;31.40;21.93;;;;;;;13.14;58.63;100921.16;1764277;79;21211;-56
2021/04/13 08:05:56;;;;;;;33.60;21.33;;;;;;;13.11;58.76;100917.47;1734087;80;21241;-56
2021/04/13 08:08:36;;;;;;;31.27;21.73;;;;;;;13.10;58.79;100922.39;1765592;79;21226;-59
2021/04/13 08:11:21;;;;;;;33.13;21.70;;;;;;;13.06;58.78;100913.02;1764902;79;21237;-55
2021/04/13 08:13:53;;;;;;;30.20;21.20;;;;;;;13.03;58.85;100909.80;1758640;79;21181;-55
2021/04/13 08:16:34;;;;;;;30.65;21.02;;;;;;;13.02;59.14;100915.57;1763846;80;22273;-56
2021/04/13 08:19:27;;;;;;;30.97;21.55;;;;;;;13.03;59.27;100913.75;1763247;79;21158;-55
2021/04/13 08:22:15;;;;;;;31.00;19.60;;;;;;;13.10;59.29;100911.82;1765889;79;21622;-56
2021/04/13 08:24:53;;;;;;;31.42;21.00;;;;;;;13.29;59.13;100910.30;1756060;80;21187;-56
2021/04/13 08:27:34;;;;;;;30.37;21.05;;;;;;;13.41;58.65;100902.69;1731787;81;21130;-57
2021/04/13 08:30:28;;;;;;;31.40;20.43;;;;;;;13.48;58.51;100906.97;1773062;78;21195;-57
2021/04/13 08:33:10;;;;;;;28.47;20.60;;;;;;;13.53;58.50;100903.45;1779927;79;21607;-56
2021/04/13 08:36:05;;;;;;;30.40;20.55;;;;;;;13.58;58.20;100896.47;1754944;80;21596;-56
2021/04/13 08:39:03;;;;;;;28.77;19.67;;;;;;;13.62;58.14;100899.23;1779583;78;21197;-56
2021/04/13 08:42:10;;;;;;;29.12;19.82;;;;;;;13.65;58.24;100899.80;1755631;79;21149;-56
2021/04/13 08:45:04;;;;;;;29.73;20.20;;;;;;;13.70;57.93;100898.06;1749437;79;21235;-56
2021/04/13 08:47:52;;;;;;;29.90;19.67;;;;;;;13.73;57.83;100899.13;1714836;80;21203;-59
2021/04/13 08:50:31;;;;;;;28.17;19.85;;;;;;;13.76;57.93;100896.23;1746882;80;21132;-59
2021/04/13 08:53:13;;;;;;;26.12;18.42;;;;;;;13.80;57.78;100898.98;1694389;80;21601;-58
2021/04/13 08:55:47;;;;;;;35.63;21.20;;;;;;;13.84;57.65;100903.03;1739963;80;21111;-57
2021/04/13 08:58:41;;;;;;;27.22;19.67;;;;;;;13.84;57.44;100901.70;1725772;81;21227;-58
2021/04/13 09:01:33;;;;;;;27.70;20.48;;;;;;;13.85;57.64;100902.53;1749837;80;22365;-60
2021/04/13 09:15:22;;;;;;;26.82;18.90;;;;;;;13.67;58.17;100886.45;1761589;80;22818;-59
2021/04/13 09:18:15;;;;;;;27.55;19.27;;;;;;;13.62;58.26;100884.19;1715651;81;21221;-59
2021/04/13 09:20:51;;;;;;;28.50;19.12;;;;;;;13.67;58.50;100878.02;1737033;80;22593;-58
2021/04/13 09:24:03;;;;;;;28.02;18.50;;;;;;;13.75;58.18;100883.96;1741333;79;22707;-59
2021/04/13 09:27:16;;;;;;;28.85;17.82;;;;;;;13.80;57.78;100875.64;1740426;80;21213;-59
2021/04/13 09:29:54;;;;;;;28.62;18.42;;;;;;;13.85;57.86;100874.76;1759159;80;21124;-58
2021/04/13 09:32:31;;;;;;;24.27;18.75;;;;;;;13.86;57.64;100873.30;1756532;80;21507;-59
2021/04/13 09:35:38;;;;;;;23.65;17.35;;;;;;;13.85;57.57;100872.97;1748346;80;21207;-58
2021/04/13 09:38:20;;;;;;;23.30;17.30;;;;;;;13.81;57.69;100867.58;1750394;80;21215;-58
2021/04/13 09:41:04;;;;;;;23.20;16.97;;;;;;;13.78;57.76;100872.30;1689454;82;21296;-58
2021/04/13 09:43:58;;;;;;;25.27;17.30;;;;;;;13.78;57.83;100876.27;1697504;82;21229;-60
2021/04/13 09:57:46;;;;;;;23.27;16.32;;;;;;;13.58;58.54;100862.09;1861872;74;22688;-60
2021/04/13 10:00:51;;;;;;;24.92;17.77;;;;;;;13.54;58.84;100866.31;1766059;79;21099;-60
2021/04/13 10:04:09;;;;;;;28.77;18.77;;;;;;;13.64;58.53;100858.45;1790670;79;22804;-57
2021/04/13 10:06:38;;;;;;;24.45;16.85;;;;;;;13.62;58.39;100867.49;1763657;80;21227;-59
2021/04/13 10:09:15;;;;;;;24.20;16.52;;;;;;;13.70;58.13;100864.55;1743330;80;21744;-59
2021/04/13 10:12:14;;;;;;;20.43;14.58;;;;;;;13.83;57.72;100860.83;1759844;79;21517;-57
2021/04/13 10:15:22;;;;;;;23.30;17.05;;;;;;;13.97;57.77;100862.28;1736688;81;21188;-59
2021/04/13 10:18:28;;;;;;;22.85;16.32;;;;;;;14.05;57.56;100858.48;1717969;82;21243;-59
2021/04/13 10:21:11;;;;;;;25.43;16.90;;;;;;;14.13;57.16;100855.52;1723017;81;26099;-60
2021/04/13 10:23:50;;;;;;;23.05;16.73;;;;;;;14.21;57.13;100856.17;1722318;82;21251;-62
2021/04/13 10:26:42;;;;;;;20.15;15.72;;;;;;;14.25;57.01;100852.77;1715823;81;21615;-62
2021/04/13 10:29:48;;;;;;;24.72;17.57;;;;;;;14.32;56.81;100852.57;1718492;81;21215;-65
2021/04/13 10:32:31;;;;;;;23.85;15.95;;;;;;;14.37;56.59;100853.49;1711537;81;21756;-61
2021/04/13 10:35:25;;;;;;;22.57;16.00;;;;;;;14.46;56.57;100856.66;1688676;81;21311;-61
2021/04/13 10:38:10;;;;;;;22.20;15.98;;;;;;;14.56;56.47;100848.24;1672823;82;21280;-64
2021/04/13 10:41:04;;;;;;;22.75;15.50;;;;;;;14.65;56.33;100855.88;1692998;82;21192;-62
2021/04/13 10:44:12;;;;;;;22.58;15.23;;;;;;;14.71;56.12;100846.06;1716062;81;21160;-61
2021/04/13 10:47:30;;;;;;;27.48;16.55;;;;;;;14.82;56.00;100850.37;1715393;81;21164;-63
2021/04/13 10:50:40;;;;;;;24.92;15.78;;;;;;;14.92;55.56;100850.38;1718223;81;21578;-62
2021/04/13 10:53:39;;;;;;;23.73;15.08;;;;;;;14.99;54.77;100848.84;1708315;82;21282;-62
2021/04/13 10:56:47;;;;;;;21.45;15.15;;;;;;;15.03;54.72;100846.28;1685550;81;21169;-60
2021/04/13 10:59:54;;;;;;;24.30;15.60;;;;;;;14.99;54.69;100840.39;1697628;82;28331;-60
2021/04/13 11:03:19;;;;;;;25.15;17.23;;;;;;;14.95;54.54;100846.96;1685346;83;21847;-59
2021/04/13 11:06:15;;;;;;;22.27;15.20;;;;;;;14.91;54.33;100847.37;1713325;80;21128;-61
2021/04/13 11:09:20;;;;;;;20.85;14.78;;;;;;;14.82;54.64;100844.58;1743926;80;21208;-58
2021/04/13 11:12:18;;;;;;;19.92;14.23;;;;;;;14.72;54.92;100843.74;1739786;81;21247;-59
2021/04/13 11:14:57;;;;;;;23.20;15.53;;;;;;;14.58;54.95;100838.34;1712954;82;21258;-60
2021/04/13 11:17:59;;;;;;;21.25;14.83;;;;;;;14.48;55.31;100837.50;1737221;80;21231;-60
2021/04/13 11:21:00;;;;;;;21.62;14.05;;;;;;;14.40;55.38;100842.64;1713188;82;21211;-60
2021/04/13 11:24:03;;;;;;;21.12;15.72;;;;;;;14.33;55.66;100840.19;1736678;80;21219;-60
2021/04/13 11:27:05;;;;;;;21.05;15.05;;;;;;;14.27;55.92;100848.17;1743462;80;21228;-60
2021/04/13 11:29:42;;;;;;;27.22;15.95;;;;;;;14.20;56.19;100847.05;1653382;84;21206;-60
2021/04/13 11:32:44;;;;;;;21.57;15.10;;;;;;;14.15;56.34;100843.47;1737681;82;21195;-59
2021/04/13 11:35:43;;;;;;;23.87;15.78;;;;;;;14.10;56.44;100837.75;1738032;80;21196;-60
2021/04/13 11:38:24;;;;;;;22.07;15.53;;;;;;;14.07;56.46;100840.19;1725643;81;21266;-59
2021/04/13 11:41:23;;;;;;;22.13;15.38;;;;;;;14.01;56.54;100840.72;1743820;80;21248;-61
2021/04/13 11:44:14;;;;;;;24.75;16.23;;;;;;;13.94;56.75;100841.73;1704128;81;21226;-56
2021/04/13 11:47:04;;;;;;;29.77;16.62;;;;;;;13.85;56.93;100849.17;1700987;82;21567;-57
2021/04/13 11:49:41;;;;;;;26.15;17.40;;;;;;;13.74;57.12;100845.28;1707029;82;21218;-57
2021/04/13 11:52:44;;;;;;;25.65;17.73;;;;;;;13.65;57.43;100844.73;1705574;82;21215;-56
2021/04/13 11:55:33;;;;;;;23.20;16.95;;;;;;;13.59;57.77;100843.95;1740085;81;21143;-56
2021/04/13 11:58:21;;;;;;;24.55;17.57;;;;;;;13.52;58.00;100837.86;1746193;80;21670;-56
2021/04/13 12:00:57;;;;;;;28.80;17.20;;;;;;;13.53;58.23;100838.69;1716241;82;21233;-55
2021/04/13 12:03:31;;;;;;;26.00;18.27;;;;;;;13.54;58.35;100839.05;1708624;80;22242;-55
2021/04/13 12:06:11;;;;;;;24.85;17.07;;;;;;;13.53;58.46;100839.55;1734713;80;21156;-54
2021/04/13 12:08:46;;;;;;;26.60;17.45;;;;;;;13.51;58.61;100836.17;1744112;80;21175;-55
2021/04/13 12:11:24;;;;;;;24.55;16.27;;;;;;;13.58;58.39;100833.02;1733260;81;22322;-55
2021/04/13 12:13:52;;;;;;;25.77;16.10;;;;;;;13.72;58.30;100822.93;1717624;82;21239;-55
2021/04/13 12:16:22;;;;;;;25.60;16.25;;;;;;;13.85;58.00;100821.85;1722399;82;21212;-55
2021/04/13 12:19:11;;;;;;;25.35;17.15;;;;;;;13.94;57.57;100819.75;1714396;82;22229;-58
2021/04/13 12:21:50;;;;;;;22.15;16.15;;;;;;;14.00;57.53;100813.89;1731576;80;21207;-54
2021/04/13 12:24:42;;;;;;;26.77;17.30;;;;;;;14.04;57.52;100815.81;1728564;82;21192;-54
2021/04/13 12:27:31;;;;;;;24.00;16.62;;;;;;;14.10;57.62;100816.11;1705056;81;21245;-55
2021/04/13 12:30:29;;;;;;;25.23;17.75;;;;;;;14.12;57.34;100815.95;1727661;81;21168;-54
2021/04/13 12:33:01;;;;;;;24.20;17.55;;;;;;;14.05;57.25;100815.65;1706223;82;21258;-55
2021/04/13 12:36:05;;;;;;;20.97;16.05;;;;;;;14.01;57.56;100812.11;1737991;82;21231;-55
2021/04/13 12:38:51;;;;;;;22.25;16.02;;;;;;;13.99;57.60;100816.70;1731862;80;21590;-55